sensor_id;sensor_type;location;lat;lon;timestamp;temperature;humidity
30694;DHT22;17446;48.022;-1.740;2022-07-21T00:00:56;20.20;93.90
30694;DHT22;17446;48.022;-1.740;2022-07-21T00:03:22;20.20;94.00
30694;DHT22;17446;48.022;-1.740;2022-07-21T00:05:48;20.10;94.10
30694;DHT22;17446;48.022;-1.740;2022-07-21T00:08:13;20.10;94.20
30694;DHT22;17446;48.022;-1.740;2022-07-21T00:10:39;20.10;94.70
30694;DHT22;17446;48.022;-1.740;2022-07-21T00:13:05;20.10;94.50
30694;DHT22;17446;48.022;-1.740;2022-07-21T00:15:31;20.10;94.50
30694;DHT22;17446;48.022;-1.740;2022-07-21T00:17:58;20.10;94.50
30694;DHT22;17446;48.022;-1.740;2022-07-21T00:20:24;20.00;94.60
30694;DHT22;17446;48.022;-1.740;2022-07-21T00:22:51;20.00;94.60
30694;DHT22;17446;48.022;-1.740;2022-07-21T00:25:17;20.00;94.80
30694;DHT22;17446;48.022;-1.740;2022-07-21T00:27:43;20.00;94.90
30694;DHT22;17446;48.022;-1.740;2022-07-21T00:30:10;20.10;94.90
30694;DHT22;17446;48.022;-1.740;2022-07-21T00:32:37;20.20;94.90
30694;DHT22;17446;48.022;-1.740;2022-07-21T00:35:07;20.10;94.80
30694;DHT22;17446;48.022;-1.740;2022-07-21T00:37:33;20.10;94.70
30694;DHT22;17446;48.022;-1.740;2022-07-21T00:39:59;20.10;94.80
30694;DHT22;17446;48.022;-1.740;2022-07-21T00:42:29;20.10;94.80
30694;DHT22;17446;48.022;-1.740;2022-07-21T00:44:56;20.10;94.80
30694;DHT22;17446;48.022;-1.740;2022-07-21T00:47:23;20.10;94.90
30694;DHT22;17446;48.022;-1.740;2022-07-21T00:49:49;20.00;94.90
30694;DHT22;17446;48.022;-1.740;2022-07-21T00:52:15;20.00;95.00
30694;DHT22;17446;48.022;-1.740;2022-07-21T00:54:42;19.90;95.00
30694;DHT22;17446;48.022;-1.740;2022-07-21T00:57:07;19.90;95.20
30694;DHT22;17446;48.022;-1.740;2022-07-21T00:59:33;19.90;95.40
30694;DHT22;17446;48.022;-1.740;2022-07-21T01:01:59;19.90;95.40
30694;DHT22;17446;48.022;-1.740;2022-07-21T01:04:24;20.00;95.40
30694;DHT22;17446;48.022;-1.740;2022-07-21T01:06:52;20.00;95.40
30694;DHT22;17446;48.022;-1.740;2022-07-21T01:09:19;20.00;95.40
30694;DHT22;17446;48.022;-1.740;2022-07-21T01:11:46;20.00;95.40
30694;DHT22;17446;48.022;-1.740;2022-07-21T01:14:12;20.10;95.40
30694;DHT22;17446;48.022;-1.740;2022-07-21T01:16:38;20.10;95.30
30694;DHT22;17446;48.022;-1.740;2022-07-21T01:19:06;20.10;95.20
30694;DHT22;17446;48.022;-1.740;2022-07-21T01:21:43;20.10;95.20
30694;DHT22;17446;48.022;-1.740;2022-07-21T01:24:09;20.10;95.10
30694;DHT22;17446;48.022;-1.740;2022-07-21T01:26:44;20.10;95.10
30694;DHT22;17446;48.022;-1.740;2022-07-21T01:29:10;20.10;95.20
30694;DHT22;17446;48.022;-1.740;2022-07-21T01:31:38;20.00;95.20
30694;DHT22;17446;48.022;-1.740;2022-07-21T01:34:05;20.00;95.30
30694;DHT22;17446;48.022;-1.740;2022-07-21T01:36:30;19.90;95.30
30694;DHT22;17446;48.022;-1.740;2022-07-21T01:38:56;19.90;95.40
30694;DHT22;17446;48.022;-1.740;2022-07-21T01:41:40;19.80;95.40
30694;DHT22;17446;48.022;-1.740;2022-07-21T01:44:08;19.70;95.60
30694;DHT22;17446;48.022;-1.740;2022-07-21T01:46:37;19.70;95.70
30694;DHT22;17446;48.022;-1.740;2022-07-21T01:49:04;19.70;95.80
30694;DHT22;17446;48.022;-1.740;2022-07-21T01:51:30;19.60;95.80
30694;DHT22;17446;48.022;-1.740;2022-07-21T01:53:56;19.60;95.90
30694;DHT22;17446;48.022;-1.740;2022-07-21T01:56:23;19.60;96.00
30694;DHT22;17446;48.022;-1.740;2022-07-21T01:58:51;19.60;96.00
30694;DHT22;17446;48.022;-1.740;2022-07-21T02:01:17;19.50;96.40
30694;DHT22;17446;48.022;-1.740;2022-07-21T02:03:44;19.50;96.10
30694;DHT22;17446;48.022;-1.740;2022-07-21T02:06:11;19.50;96.30
30694;DHT22;17446;48.022;-1.740;2022-07-21T02:08:37;19.50;96.20
30694;DHT22;17446;48.022;-1.740;2022-07-21T02:11:04;19.40;96.30
30694;DHT22;17446;48.022;-1.740;2022-07-21T02:13:30;19.40;96.40
30694;DHT22;17446;48.022;-1.740;2022-07-21T02:15:56;19.40;96.50
30694;DHT22;17446;48.022;-1.740;2022-07-21T02:18:21;19.40;96.60
30694;DHT22;17446;48.022;-1.740;2022-07-21T02:20:47;19.30;96.60
30694;DHT22;17446;48.022;-1.740;2022-07-21T02:23:15;19.30;96.80
30694;DHT22;17446;48.022;-1.740;2022-07-21T02:25:40;19.30;96.80
30694;DHT22;17446;48.022;-1.740;2022-07-21T02:28:06;19.20;96.90
30694;DHT22;17446;48.022;-1.740;2022-07-21T02:30:32;19.20;97.00
30694;DHT22;17446;48.022;-1.740;2022-07-21T02:32:57;19.20;97.10
30694;DHT22;17446;48.022;-1.740;2022-07-21T02:35:23;19.20;97.00
30694;DHT22;17446;48.022;-1.740;2022-07-21T02:37:49;19.20;97.00
30694;DHT22;17446;48.022;-1.740;2022-07-21T02:40:14;19.20;97.10
30694;DHT22;17446;48.022;-1.740;2022-07-21T02:42:40;19.20;97.10
30694;DHT22;17446;48.022;-1.740;2022-07-21T02:45:07;19.20;97.10
30694;DHT22;17446;48.022;-1.740;2022-07-21T02:47:46;19.20;97.20
30694;DHT22;17446;48.022;-1.740;2022-07-21T02:50:12;19.20;97.10
30694;DHT22;17446;48.022;-1.740;2022-07-21T02:52:38;19.20;97.10
30694;DHT22;17446;48.022;-1.740;2022-07-21T02:55:03;19.20;97.10
30694;DHT22;17446;48.022;-1.740;2022-07-21T02:57:29;19.20;97.10
30694;DHT22;17446;48.022;-1.740;2022-07-21T02:59:55;19.20;97.10
30694;DHT22;17446;48.022;-1.740;2022-07-21T03:02:20;19.30;97.10
30694;DHT22;17446;48.022;-1.740;2022-07-21T03:04:46;19.20;96.90
30694;DHT22;17446;48.022;-1.740;2022-07-21T03:07:11;19.30;96.90
30694;DHT22;17446;48.022;-1.740;2022-07-21T03:09:37;19.20;96.90
30694;DHT22;17446;48.022;-1.740;2022-07-21T03:12:03;19.20;96.90
30694;DHT22;17446;48.022;-1.740;2022-07-21T03:14:28;19.20;96.90
30694;DHT22;17446;48.022;-1.740;2022-07-21T03:16:54;19.20;96.90
30694;DHT22;17446;48.022;-1.740;2022-07-21T03:19:19;19.20;96.90
30694;DHT22;17446;48.022;-1.740;2022-07-21T03:21:45;19.20;97.00
30694;DHT22;17446;48.022;-1.740;2022-07-21T03:24:11;19.20;97.00
30694;DHT22;17446;48.022;-1.740;2022-07-21T03:26:36;19.20;97.00
30694;DHT22;17446;48.022;-1.740;2022-07-21T03:29:04;19.10;97.00
30694;DHT22;17446;48.022;-1.740;2022-07-21T03:31:29;19.10;96.90
30694;DHT22;17446;48.022;-1.740;2022-07-21T03:33:58;19.10;97.00
30694;DHT22;17446;48.022;-1.740;2022-07-21T03:36:24;19.10;97.10
30694;DHT22;17446;48.022;-1.740;2022-07-21T03:38:49;19.00;97.10
30694;DHT22;17446;48.022;-1.740;2022-07-21T03:41:16;19.00;97.10
30694;DHT22;17446;48.022;-1.740;2022-07-21T03:43:42;19.00;97.00
30694;DHT22;17446;48.022;-1.740;2022-07-21T03:46:08;19.00;97.00
30694;DHT22;17446;48.022;-1.740;2022-07-21T03:48:33;18.90;96.90
30694;DHT22;17446;48.022;-1.740;2022-07-21T03:50:59;18.90;96.80
30694;DHT22;17446;48.022;-1.740;2022-07-21T03:53:25;18.80;96.90
30694;DHT22;17446;48.022;-1.740;2022-07-21T03:55:50;18.80;97.00
30694;DHT22;17446;48.022;-1.740;2022-07-21T03:58:16;18.70;97.10
30694;DHT22;17446;48.022;-1.740;2022-07-21T04:00:43;18.70;97.10
30694;DHT22;17446;48.022;-1.740;2022-07-21T04:03:10;18.70;97.10
30694;DHT22;17446;48.022;-1.740;2022-07-21T04:05:37;18.70;97.10
30694;DHT22;17446;48.022;-1.740;2022-07-21T04:08:03;18.70;97.00
30694;DHT22;17446;48.022;-1.740;2022-07-21T04:10:32;18.60;96.90
30694;DHT22;17446;48.022;-1.740;2022-07-21T04:12:59;18.60;96.90
30694;DHT22;17446;48.022;-1.740;2022-07-21T04:15:26;18.60;96.80
30694;DHT22;17446;48.022;-1.740;2022-07-21T04:17:52;18.50;96.70
30694;DHT22;17446;48.022;-1.740;2022-07-21T04:20:18;18.50;96.70
30694;DHT22;17446;48.022;-1.740;2022-07-21T04:22:45;18.50;96.70
30694;DHT22;17446;48.022;-1.740;2022-07-21T04:25:13;18.50;96.70
30694;DHT22;17446;48.022;-1.740;2022-07-21T04:27:39;18.40;96.80
30694;DHT22;17446;48.022;-1.740;2022-07-21T04:30:07;18.40;96.70
30694;DHT22;17446;48.022;-1.740;2022-07-21T04:32:33;18.40;96.80
30694;DHT22;17446;48.022;-1.740;2022-07-21T04:34:59;18.40;96.80
30694;DHT22;17446;48.022;-1.740;2022-07-21T04:37:24;18.40;96.80
30694;DHT22;17446;48.022;-1.740;2022-07-21T04:39:50;18.40;96.80
30694;DHT22;17446;48.022;-1.740;2022-07-21T04:42:15;18.30;96.70
30694;DHT22;17446;48.022;-1.740;2022-07-21T04:44:41;18.30;96.60
30694;DHT22;17446;48.022;-1.740;2022-07-21T04:47:07;18.30;96.60
30694;DHT22;17446;48.022;-1.740;2022-07-21T04:49:32;18.30;96.60
30694;DHT22;17446;48.022;-1.740;2022-07-21T04:51:58;18.30;96.60
30694;DHT22;17446;48.022;-1.740;2022-07-21T04:54:24;18.30;96.60
30694;DHT22;17446;48.022;-1.740;2022-07-21T04:56:49;18.30;96.60
30694;DHT22;17446;48.022;-1.740;2022-07-21T04:59:15;18.30;96.60
30694;DHT22;17446;48.022;-1.740;2022-07-21T05:01:40;18.30;96.60
30694;DHT22;17446;48.022;-1.740;2022-07-21T05:04:06;18.20;96.60
30694;DHT22;17446;48.022;-1.740;2022-07-21T05:06:33;18.20;96.70
30694;DHT22;17446;48.022;-1.740;2022-07-21T05:08:58;18.20;96.70
30694;DHT22;17446;48.022;-1.740;2022-07-21T05:11:24;18.20;96.80
30694;DHT22;17446;48.022;-1.740;2022-07-21T05:13:50;18.30;96.80
30694;DHT22;17446;48.022;-1.740;2022-07-21T05:16:17;18.30;97.30
30694;DHT22;17446;48.022;-1.740;2022-07-21T05:18:43;18.40;97.00
30694;DHT22;17446;48.022;-1.740;2022-07-21T05:21:08;18.40;97.40
30694;DHT22;17446;48.022;-1.740;2022-07-21T05:23:34;18.50;97.10
30694;DHT22;17446;48.022;-1.740;2022-07-21T05:26:00;18.60;97.10
30694;DHT22;17446;48.022;-1.740;2022-07-21T05:28:27;18.70;97.00
30694;DHT22;17446;48.022;-1.740;2022-07-21T05:30:53;18.80;97.00
30694;DHT22;17446;48.022;-1.740;2022-07-21T05:33:19;18.80;96.80
30694;DHT22;17446;48.022;-1.740;2022-07-21T05:35:44;18.90;96.70
30694;DHT22;17446;48.022;-1.740;2022-07-21T05:38:10;19.00;96.60
30694;DHT22;17446;48.022;-1.740;2022-07-21T05:40:36;19.10;96.60
30694;DHT22;17446;48.022;-1.740;2022-07-21T05:43:02;19.20;96.50
30694;DHT22;17446;48.022;-1.740;2022-07-21T05:45:27;19.30;96.40
30694;DHT22;17446;48.022;-1.740;2022-07-21T05:47:53;19.30;96.30
30694;DHT22;17446;48.022;-1.740;2022-07-21T05:50:19;19.50;96.30
30694;DHT22;17446;48.022;-1.740;2022-07-21T05:52:44;19.50;95.90
30694;DHT22;17446;48.022;-1.740;2022-07-21T05:55:10;19.60;95.70
30694;DHT22;17446;48.022;-1.740;2022-07-21T05:57:37;19.70;95.70
30694;DHT22;17446;48.022;-1.740;2022-07-21T06:00:03;19.70;95.50
30694;DHT22;17446;48.022;-1.740;2022-07-21T06:02:29;19.80;95.40
30694;DHT22;17446;48.022;-1.740;2022-07-21T06:04:56;19.90;95.20
30694;DHT22;17446;48.022;-1.740;2022-07-21T06:07:22;20.00;95.10
30694;DHT22;17446;48.022;-1.740;2022-07-21T06:09:48;20.10;94.90
30694;DHT22;17446;48.022;-1.740;2022-07-21T06:12:13;20.20;94.80
30694;DHT22;17446;48.022;-1.740;2022-07-21T06:14:39;20.20;94.60
30694;DHT22;17446;48.022;-1.740;2022-07-21T06:17:05;20.20;94.20
30694;DHT22;17446;48.022;-1.740;2022-07-21T06:19:30;20.10;94.20
30694;DHT22;17446;48.022;-1.740;2022-07-21T06:21:56;20.00;94.30
30694;DHT22;17446;48.022;-1.740;2022-07-21T06:24:22;20.00;94.10
30694;DHT22;17446;48.022;-1.740;2022-07-21T06:26:48;19.90;94.40
30694;DHT22;17446;48.022;-1.740;2022-07-21T06:29:14;19.80;94.50
30694;DHT22;17446;48.022;-1.740;2022-07-21T06:31:39;19.80;94.60
30694;DHT22;17446;48.022;-1.740;2022-07-21T06:34:05;19.80;94.70
30694;DHT22;17446;48.022;-1.740;2022-07-21T06:36:31;19.70;94.70
30694;DHT22;17446;48.022;-1.740;2022-07-21T06:38:57;19.80;94.80
30694;DHT22;17446;48.022;-1.740;2022-07-21T06:41:22;19.80;94.90
30694;DHT22;17446;48.022;-1.740;2022-07-21T06:43:48;19.80;94.80
30694;DHT22;17446;48.022;-1.740;2022-07-21T06:46:14;19.80;94.80
30694;DHT22;17446;48.022;-1.740;2022-07-21T06:48:40;19.80;94.80
30694;DHT22;17446;48.022;-1.740;2022-07-21T06:51:05;19.90;94.90
30694;DHT22;17446;48.022;-1.740;2022-07-21T06:53:31;19.90;94.90
30694;DHT22;17446;48.022;-1.740;2022-07-21T06:55:57;19.90;94.90
30694;DHT22;17446;48.022;-1.740;2022-07-21T06:58:23;20.00;94.80
30694;DHT22;17446;48.022;-1.740;2022-07-21T07:00:51;20.00;94.70
30694;DHT22;17446;48.022;-1.740;2022-07-21T07:03:17;20.00;95.10
30694;DHT22;17446;48.022;-1.740;2022-07-21T07:05:44;20.10;94.80
30694;DHT22;17446;48.022;-1.740;2022-07-21T07:08:11;20.20;94.80
30694;DHT22;17446;48.022;-1.740;2022-07-21T07:10:38;20.20;94.70
30694;DHT22;17446;48.022;-1.740;2022-07-21T07:13:04;20.40;94.60
30694;DHT22;17446;48.022;-1.740;2022-07-21T07:15:29;20.50;94.40
30694;DHT22;17446;48.022;-1.740;2022-07-21T07:17:55;20.60;94.30
30694;DHT22;17446;48.022;-1.740;2022-07-21T07:20:21;20.80;94.10
30694;DHT22;17446;48.022;-1.740;2022-07-21T07:22:48;20.90;93.90
30694;DHT22;17446;48.022;-1.740;2022-07-21T07:25:14;21.10;93.70
30694;DHT22;17446;48.022;-1.740;2022-07-21T07:27:47;21.40;93.60
30694;DHT22;17446;48.022;-1.740;2022-07-21T07:30:14;21.70;93.20
30694;DHT22;17446;48.022;-1.740;2022-07-21T07:32:40;21.90;92.80
30694;DHT22;17446;48.022;-1.740;2022-07-21T07:35:11;22.10;92.40
30694;DHT22;17446;48.022;-1.740;2022-07-21T07:37:39;22.20;92.10
30694;DHT22;17446;48.022;-1.740;2022-07-21T07:40:06;22.30;91.90
30694;DHT22;17446;48.022;-1.740;2022-07-21T07:42:34;22.30;91.50
30694;DHT22;17446;48.022;-1.740;2022-07-21T07:45:00;22.30;91.40
30694;DHT22;17446;48.022;-1.740;2022-07-21T07:47:25;22.30;91.40
30694;DHT22;17446;48.022;-1.740;2022-07-21T07:49:52;22.40;91.20
30694;DHT22;17446;48.022;-1.740;2022-07-21T07:52:19;22.50;91.30
30694;DHT22;17446;48.022;-1.740;2022-07-21T07:54:45;22.60;91.10
30694;DHT22;17446;48.022;-1.740;2022-07-21T07:57:11;22.80;91.00
30694;DHT22;17446;48.022;-1.740;2022-07-21T07:59:36;22.90;90.50
30694;DHT22;17446;48.022;-1.740;2022-07-21T08:02:02;22.90;89.80
30694;DHT22;17446;48.022;-1.740;2022-07-21T08:04:27;22.90;89.60
30694;DHT22;17446;48.022;-1.740;2022-07-21T08:06:53;23.00;90.00
30694;DHT22;17446;48.022;-1.740;2022-07-21T08:09:19;23.10;89.70
30694;DHT22;17446;48.022;-1.740;2022-07-21T08:11:45;23.30;89.10
30694;DHT22;17446;48.022;-1.740;2022-07-21T08:14:16;23.40;88.30
30694;DHT22;17446;48.022;-1.740;2022-07-21T08:16:42;23.50;87.60
30694;DHT22;17446;48.022;-1.740;2022-07-21T08:19:08;23.60;87.20
30694;DHT22;17446;48.022;-1.740;2022-07-21T08:21:34;23.70;86.40
30694;DHT22;17446;48.022;-1.740;2022-07-21T08:24:01;23.80;86.60
30694;DHT22;17446;48.022;-1.740;2022-07-21T08:26:27;24.00;86.70
30694;DHT22;17446;48.022;-1.740;2022-07-21T08:28:54;24.00;86.00
30694;DHT22;17446;48.022;-1.740;2022-07-21T08:31:20;24.10;85.70
30694;DHT22;17446;48.022;-1.740;2022-07-21T08:33:46;24.20;85.20
30694;DHT22;17446;48.022;-1.740;2022-07-21T08:36:12;24.10;84.90
30694;DHT22;17446;48.022;-1.740;2022-07-21T08:38:38;24.10;84.50
30694;DHT22;17446;48.022;-1.740;2022-07-21T08:41:03;24.00;84.10
30694;DHT22;17446;48.022;-1.740;2022-07-21T08:43:30;24.00;84.20
30694;DHT22;17446;48.022;-1.740;2022-07-21T08:45:55;24.00;84.30
30694;DHT22;17446;48.022;-1.740;2022-07-21T08:48:25;24.10;84.30
30694;DHT22;17446;48.022;-1.740;2022-07-21T08:50:51;24.20;83.80
30694;DHT22;17446;48.022;-1.740;2022-07-21T08:53:17;24.20;83.20
30694;DHT22;17446;48.022;-1.740;2022-07-21T08:55:43;24.20;82.70
30694;DHT22;17446;48.022;-1.740;2022-07-21T08:58:10;24.20;82.00
30694;DHT22;17446;48.022;-1.740;2022-07-21T09:00:42;24.10;81.20
30694;DHT22;17446;48.022;-1.740;2022-07-21T09:03:20;24.10;81.80
30694;DHT22;17446;48.022;-1.740;2022-07-21T09:06:13;24.10;82.00
30694;DHT22;17446;48.022;-1.740;2022-07-21T09:08:41;24.00;81.70
30694;DHT22;17446;48.022;-1.740;2022-07-21T09:11:25;24.00;82.20
30694;DHT22;17446;48.022;-1.740;2022-07-21T09:19:03;23.80;81.20
30694;DHT22;17446;48.022;-1.740;2022-07-21T09:21:29;23.70;80.60
30694;DHT22;17446;48.022;-1.740;2022-07-21T09:24:14;23.70;80.80
30694;DHT22;17446;48.022;-1.740;2022-07-21T09:34:42;23.70;75.50
30694;DHT22;17446;48.022;-1.740;2022-07-21T09:37:08;23.70;76.30
30694;DHT22;17446;48.022;-1.740;2022-07-21T09:40:21;23.70;75.40
30694;DHT22;17446;48.022;-1.740;2022-07-21T09:42:50;23.70;75.30
30694;DHT22;17446;48.022;-1.740;2022-07-21T09:45:17;23.80;75.80
30694;DHT22;17446;48.022;-1.740;2022-07-21T09:47:44;23.80;76.20
30694;DHT22;17446;48.022;-1.740;2022-07-21T09:50:13;23.90;75.90
30694;DHT22;17446;48.022;-1.740;2022-07-21T09:52:42;24.00;76.00
30694;DHT22;17446;48.022;-1.740;2022-07-21T09:55:13;23.90;76.10
30694;DHT22;17446;48.022;-1.740;2022-07-21T09:57:39;24.10;76.00
30694;DHT22;17446;48.022;-1.740;2022-07-21T10:00:11;24.30;75.80
30694;DHT22;17446;48.022;-1.740;2022-07-21T10:02:38;24.50;75.90
30694;DHT22;17446;48.022;-1.740;2022-07-21T10:05:07;24.70;76.30
30694;DHT22;17446;48.022;-1.740;2022-07-21T10:07:36;25.00;75.50
30694;DHT22;17446;48.022;-1.740;2022-07-21T10:10:03;25.30;74.10
30694;DHT22;17446;48.022;-1.740;2022-07-21T10:12:29;25.50;72.80
30694;DHT22;17446;48.022;-1.740;2022-07-21T10:14:55;25.80;71.40
30694;DHT22;17446;48.022;-1.740;2022-07-21T10:17:22;26.00;70.10
30694;DHT22;17446;48.022;-1.740;2022-07-21T10:20:21;26.20;70.00
30694;DHT22;17446;48.022;-1.740;2022-07-21T10:25:36;26.70;69.30
30694;DHT22;17446;48.022;-1.740;2022-07-21T10:28:19;26.80;67.90
30694;DHT22;17446;48.022;-1.740;2022-07-21T10:30:54;26.90;67.00
30694;DHT22;17446;48.022;-1.740;2022-07-21T10:33:50;27.00;67.00
30694;DHT22;17446;48.022;-1.740;2022-07-21T10:36:08;27.10;65.90
30694;DHT22;17446;48.022;-1.740;2022-07-21T10:38:35;27.20;65.60
30694;DHT22;17446;48.022;-1.740;2022-07-21T10:41:03;27.30;64.70
30694;DHT22;17446;48.022;-1.740;2022-07-21T10:45:55;27.60;64.40
30694;DHT22;17446;48.022;-1.740;2022-07-21T10:51:13;27.70;62.70
30694;DHT22;17446;48.022;-1.740;2022-07-21T10:53:40;27.80;62.70
30694;DHT22;17446;48.022;-1.740;2022-07-21T10:56:07;27.90;61.70
30694;DHT22;17446;48.022;-1.740;2022-07-21T10:58:40;27.90;62.10
30694;DHT22;17446;48.022;-1.740;2022-07-21T11:01:26;27.90;61.90
30694;DHT22;17446;48.022;-1.740;2022-07-21T11:04:10;27.90;62.20
30694;DHT22;17446;48.022;-1.740;2022-07-21T11:06:38;27.90;62.70
30694;DHT22;17446;48.022;-1.740;2022-07-21T11:11:32;28.00;61.60
30694;DHT22;17446;48.022;-1.740;2022-07-21T11:14:15;28.10;61.20
30694;DHT22;17446;48.022;-1.740;2022-07-21T11:21:53;27.90;59.40
30694;DHT22;17446;48.022;-1.740;2022-07-21T11:24:20;27.50;59.30
30694;DHT22;17446;48.022;-1.740;2022-07-21T11:26:56;27.10;60.20
30694;DHT22;17446;48.022;-1.740;2022-07-21T11:29:22;26.80;61.10
30694;DHT22;17446;48.022;-1.740;2022-07-21T11:31:49;26.50;61.50
30694;DHT22;17446;48.022;-1.740;2022-07-21T11:34:15;26.50;61.90
30694;DHT22;17446;48.022;-1.740;2022-07-21T11:36:41;26.50;62.80
30694;DHT22;17446;48.022;-1.740;2022-07-21T11:39:09;26.70;63.30
30694;DHT22;17446;48.022;-1.740;2022-07-21T11:41:37;26.80;62.20
30694;DHT22;17446;48.022;-1.740;2022-07-21T11:44:04;26.90;62.50
30694;DHT22;17446;48.022;-1.740;2022-07-21T11:46:46;27.10;62.40
30694;DHT22;17446;48.022;-1.740;2022-07-21T11:49:12;27.30;61.90
30694;DHT22;17446;48.022;-1.740;2022-07-21T11:52:06;27.40;61.50
30694;DHT22;17446;48.022;-1.740;2022-07-21T11:57:04;27.60;60.70
30694;DHT22;17446;48.022;-1.740;2022-07-21T11:59:30;27.60;60.00
30694;DHT22;17446;48.022;-1.740;2022-07-21T12:02:07;27.60;60.50
30694;DHT22;17446;48.022;-1.740;2022-07-21T12:04:56;27.60;59.50
30694;DHT22;17446;48.022;-1.740;2022-07-21T12:09:57;27.40;60.30
30694;DHT22;17446;48.022;-1.740;2022-07-21T12:12:36;27.40;60.30
30694;DHT22;17446;48.022;-1.740;2022-07-21T12:15:18;27.40;59.90
30694;DHT22;17446;48.022;-1.740;2022-07-21T12:17:50;27.40;60.80
30694;DHT22;17446;48.022;-1.740;2022-07-21T12:20:37;27.40;60.20
30694;DHT22;17446;48.022;-1.740;2022-07-21T12:25:42;27.30;59.30
30694;DHT22;17446;48.022;-1.740;2022-07-21T12:28:08;27.30;59.50
30694;DHT22;17446;48.022;-1.740;2022-07-21T12:33:11;27.50;59.70
30694;DHT22;17446;48.022;-1.740;2022-07-21T12:35:42;27.50;58.90
30694;DHT22;17446;48.022;-1.740;2022-07-21T12:38:13;27.40;58.30
30694;DHT22;17446;48.022;-1.740;2022-07-21T12:40:43;27.40;59.50
30694;DHT22;17446;48.022;-1.740;2022-07-21T12:43:15;27.40;59.60
30694;DHT22;17446;48.022;-1.740;2022-07-21T12:46:14;27.50;59.60
30694;DHT22;17446;48.022;-1.740;2022-07-21T12:48:40;27.60;58.90
30694;DHT22;17446;48.022;-1.740;2022-07-21T12:53:48;27.60;59.30
30694;DHT22;17446;48.022;-1.740;2022-07-21T12:56:20;27.70;59.50
30694;DHT22;17446;48.022;-1.740;2022-07-21T12:58:47;27.80;58.50
30694;DHT22;17446;48.022;-1.740;2022-07-21T13:01:15;27.90;58.20
30694;DHT22;17446;48.022;-1.740;2022-07-21T13:03:41;27.90;58.60
30694;DHT22;17446;48.022;-1.740;2022-07-21T13:06:08;28.10;58.40
30694;DHT22;17446;48.022;-1.740;2022-07-21T13:08:34;28.20;57.80
30694;DHT22;17446;48.022;-1.740;2022-07-21T13:11:00;28.30;57.60
30694;DHT22;17446;48.022;-1.740;2022-07-21T13:13:27;28.30;57.20
30694;DHT22;17446;48.022;-1.740;2022-07-21T13:15:53;28.30;57.20
30694;DHT22;17446;48.022;-1.740;2022-07-21T13:18:19;28.40;57.40
30694;DHT22;17446;48.022;-1.740;2022-07-21T13:20:45;28.40;56.80
30694;DHT22;17446;48.022;-1.740;2022-07-21T13:23:11;28.50;57.30
30694;DHT22;17446;48.022;-1.740;2022-07-21T13:25:37;28.60;57.00
30694;DHT22;17446;48.022;-1.740;2022-07-21T13:28:03;28.60;57.10
30694;DHT22;17446;48.022;-1.740;2022-07-21T13:30:29;28.70;56.60
30694;DHT22;17446;48.022;-1.740;2022-07-21T13:32:55;28.70;56.40
30694;DHT22;17446;48.022;-1.740;2022-07-21T13:35:21;28.70;56.40
30694;DHT22;17446;48.022;-1.740;2022-07-21T13:37:46;28.70;56.20
30694;DHT22;17446;48.022;-1.740;2022-07-21T13:40:12;28.80;56.70
30694;DHT22;17446;48.022;-1.740;2022-07-21T13:42:38;28.80;56.30
30694;DHT22;17446;48.022;-1.740;2022-07-21T13:45:04;28.90;56.30
30694;DHT22;17446;48.022;-1.740;2022-07-21T13:47:31;29.00;56.70
30694;DHT22;17446;48.022;-1.740;2022-07-21T13:49:56;29.10;56.50
30694;DHT22;17446;48.022;-1.740;2022-07-21T13:52:22;29.20;55.60
30694;DHT22;17446;48.022;-1.740;2022-07-21T13:54:47;29.20;55.20
30694;DHT22;17446;48.022;-1.740;2022-07-21T13:57:13;29.20;55.40
30694;DHT22;17446;48.022;-1.740;2022-07-21T13:59:39;29.30;55.30
30694;DHT22;17446;48.022;-1.740;2022-07-21T14:02:04;29.20;54.80
30694;DHT22;17446;48.022;-1.740;2022-07-21T14:04:30;29.20;54.70
30694;DHT22;17446;48.022;-1.740;2022-07-21T14:06:56;29.20;55.10
30694;DHT22;17446;48.022;-1.740;2022-07-21T14:09:21;29.30;55.80
30694;DHT22;17446;48.022;-1.740;2022-07-21T14:11:48;29.40;55.60
30694;DHT22;17446;48.022;-1.740;2022-07-21T14:14:14;29.50;54.90
30694;DHT22;17446;48.022;-1.740;2022-07-21T14:16:46;29.60;54.80
30694;DHT22;17446;48.022;-1.740;2022-07-21T14:19:12;29.60;54.20
30694;DHT22;17446;48.022;-1.740;2022-07-21T14:21:38;29.70;54.70
30694;DHT22;17446;48.022;-1.740;2022-07-21T14:24:04;29.70;54.30
30694;DHT22;17446;48.022;-1.740;2022-07-21T14:26:49;29.80;54.00
30694;DHT22;17446;48.022;-1.740;2022-07-21T14:29:14;29.80;53.60
30694;DHT22;17446;48.022;-1.740;2022-07-21T14:31:40;29.70;53.10
30694;DHT22;17446;48.022;-1.740;2022-07-21T14:34:06;29.60;53.60
30694;DHT22;17446;48.022;-1.740;2022-07-21T14:36:31;29.60;53.20
30694;DHT22;17446;48.022;-1.740;2022-07-21T14:38:57;29.60;53.40
30694;DHT22;17446;48.022;-1.740;2022-07-21T14:41:23;29.70;54.00
30694;DHT22;17446;48.022;-1.740;2022-07-21T14:43:48;29.80;53.50
30694;DHT22;17446;48.022;-1.740;2022-07-21T14:46:15;29.80;52.90
30694;DHT22;17446;48.022;-1.740;2022-07-21T14:48:41;29.80;52.30
30694;DHT22;17446;48.022;-1.740;2022-07-21T14:51:06;29.70;52.10
30694;DHT22;17446;48.022;-1.740;2022-07-21T14:53:32;29.60;52.40
30694;DHT22;17446;48.022;-1.740;2022-07-21T14:55:57;29.60;52.40
30694;DHT22;17446;48.022;-1.740;2022-07-21T14:58:23;29.60;52.50
30694;DHT22;17446;48.022;-1.740;2022-07-21T15:00:49;29.70;53.10
30694;DHT22;17446;48.022;-1.740;2022-07-21T15:03:15;29.90;53.70
30694;DHT22;17446;48.022;-1.740;2022-07-21T15:05:40;30.10;52.90
30694;DHT22;17446;48.022;-1.740;2022-07-21T15:08:06;30.20;52.20
30694;DHT22;17446;48.022;-1.740;2022-07-21T15:10:32;30.40;52.30
30694;DHT22;17446;48.022;-1.740;2022-07-21T15:12:57;30.60;52.30
30694;DHT22;17446;48.022;-1.740;2022-07-21T15:15:23;30.80;52.00
30694;DHT22;17446;48.022;-1.740;2022-07-21T15:17:48;30.90;51.60
30694;DHT22;17446;48.022;-1.740;2022-07-21T15:20:14;31.00;51.10
30694;DHT22;17446;48.022;-1.740;2022-07-21T15:22:40;31.20;51.50
30694;DHT22;17446;48.022;-1.740;2022-07-21T15:25:07;31.40;51.10
30694;DHT22;17446;48.022;-1.740;2022-07-21T15:27:40;31.60;51.00
30694;DHT22;17446;48.022;-1.740;2022-07-21T15:30:08;31.80;50.40
30694;DHT22;17446;48.022;-1.740;2022-07-21T15:32:34;32.10;50.00
30694;DHT22;17446;48.022;-1.740;2022-07-21T15:35:00;32.30;49.30
30694;DHT22;17446;48.022;-1.740;2022-07-21T15:37:26;32.70;49.00
30694;DHT22;17446;48.022;-1.740;2022-07-21T15:39:51;32.90;48.60
30694;DHT22;17446;48.022;-1.740;2022-07-21T15:42:17;33.20;48.20
30694;DHT22;17446;48.022;-1.740;2022-07-21T15:44:43;33.50;47.90
30694;DHT22;17446;48.022;-1.740;2022-07-21T15:47:08;33.80;47.70
30694;DHT22;17446;48.022;-1.740;2022-07-21T15:49:35;34.10;46.70
30694;DHT22;17446;48.022;-1.740;2022-07-21T15:52:01;34.50;45.90
30694;DHT22;17446;48.022;-1.740;2022-07-21T15:54:28;34.60;45.70
30694;DHT22;17446;48.022;-1.740;2022-07-21T15:56:54;34.90;45.70
30694;DHT22;17446;48.022;-1.740;2022-07-21T15:59:20;35.20;44.80